sensor_id;sensor_type;location;lat;lon;timestamp;P1;durP1;ratioP1;P2;durP2;ratioP2
20397;SDS011;10358;49.590;11.030;2022-08-01T00:02:12;4.43;;;3.33;;
20397;SDS011;10358;49.590;11.030;2022-08-01T00:04:37;4.22;;;3.70;;
20397;SDS011;10358;49.590;11.030;2022-08-01T00:07:03;4.80;;;3.45;;
20397;SDS011;10358;49.590;11.030;2022-08-01T00:09:29;10.02;;;3.80;;
20397;SDS011;10358;49.590;11.030;2022-08-01T00:11:54;6.20;;;3.55;;
20397;SDS011;10358;49.590;11.030;2022-08-01T00:14:20;5.13;;;3.60;;
20397;SDS011;10358;49.590;11.030;2022-08-01T00:16:45;5.18;;;3.38;;
20397;SDS011;10358;49.590;11.030;2022-08-01T00:19:11;4.60;;;3.45;;
20397;SDS011;10358;49.590;11.030;2022-08-01T00:21:36;4.20;;;3.80;;
20397;SDS011;10358;49.590;11.030;2022-08-01T00:24:02;5.45;;;3.88;;
20397;SDS011;10358;49.590;11.030;2022-08-01T00:26:28;6.30;;;3.70;;
20397;SDS011;10358;49.590;11.030;2022-08-01T00:28:53;4.20;;;3.35;;
20397;SDS011;10358;49.590;11.030;2022-08-01T00:31:19;5.65;;;3.90;;
20397;SDS011;10358;49.590;11.030;2022-08-01T00:33:44;4.00;;;3.50;;
20397;SDS011;10358;49.590;11.030;2022-08-01T00:36:10;5.70;;;3.65;;
20397;SDS011;10358;49.590;11.030;2022-08-01T00:38:35;6.30;;;3.85;;
20397;SDS011;10358;49.590;11.030;2022-08-01T00:41:01;5.82;;;4.00;;
20397;SDS011;10358;49.590;11.030;2022-08-01T00:43:26;4.07;;;3.67;;
20397;SDS011;10358;49.590;11.030;2022-08-01T00:45:52;6.15;;;3.80;;
20397;SDS011;10358;49.590;11.030;2022-08-01T00:48:18;8.88;;;3.72;;
20397;SDS011;10358;49.590;11.030;2022-08-01T00:50:43;6.40;;;3.65;;
20397;SDS011;10358;49.590;11.030;2022-08-01T00:53:09;6.05;;;3.80;;
20397;SDS011;10358;49.590;11.030;2022-08-01T00:55:35;4.28;;;3.70;;
20397;SDS011;10358;49.590;11.030;2022-08-01T00:58:00;3.95;;;3.53;;
20397;SDS011;10358;49.590;11.030;2022-08-01T01:00:26;4.60;;;3.97;;
20397;SDS011;10358;49.590;11.030;2022-08-01T01:02:52;6.13;;;3.50;;
20397;SDS011;10358;49.590;11.030;2022-08-01T01:05:18;4.00;;;3.40;;
20397;SDS011;10358;49.590;11.030;2022-08-01T01:07:48;5.97;;;3.60;;
20397;SDS011;10358;49.590;11.030;2022-08-01T01:13:15;5.90;;;4.43;;
20397;SDS011;10358;49.590;11.030;2022-08-01T01:15:46;7.68;;;5.20;;
20397;SDS011;10358;49.590;11.030;2022-08-01T01:18:25;6.97;;;4.03;;
20397;SDS011;10358;49.590;11.030;2022-08-01T01:21:04;4.95;;;4.10;;
20397;SDS011;10358;49.590;11.030;2022-08-01T01:28:59;6.60;;;4.47;;
20397;SDS011;10358;49.590;11.030;2022-08-01T01:31:28;5.05;;;4.40;;
20397;SDS011;10358;49.590;11.030;2022-08-01T01:34:00;6.70;;;4.18;;
20397;SDS011;10358;49.590;11.030;2022-08-01T01:36:29;6.75;;;3.97;;
20397;SDS011;10358;49.590;11.030;2022-08-01T01:38:57;7.32;;;4.32;;
20397;SDS011;10358;49.590;11.030;2022-08-01T01:41:25;6.40;;;3.88;;
20397;SDS011;10358;49.590;11.030;2022-08-01T01:43:52;4.95;;;3.92;;
20397;SDS011;10358;49.590;11.030;2022-08-01T01:46:19;5.22;;;4.00;;
20397;SDS011;10358;49.590;11.030;2022-08-01T01:48:48;6.35;;;4.18;;
20397;SDS011;10358;49.590;11.030;2022-08-01T01:51:15;6.03;;;4.18;;
20397;SDS011;10358;49.590;11.030;2022-08-01T01:53:41;6.93;;;4.18;;
20397;SDS011;10358;49.590;11.030;2022-08-01T01:56:08;5.22;;;4.10;;
20397;SDS011;10358;49.590;11.030;2022-08-01T01:58:34;4.93;;;4.07;;
20397;SDS011;10358;49.590;11.030;2022-08-01T02:01:04;5.70;;;4.10;;
20397;SDS011;10358;49.590;11.030;2022-08-01T02:03:31;5.20;;;4.53;;
20397;SDS011;10358;49.590;11.030;2022-08-01T02:06:01;7.10;;;4.43;;
20397;SDS011;10358;49.590;11.030;2022-08-01T02:08:28;6.68;;;4.88;;
20397;SDS011;10358;49.590;11.030;2022-08-01T02:10:55;6.45;;;4.22;;
20397;SDS011;10358;49.590;11.030;2022-08-01T02:16:17;6.28;;;4.57;;
20397;SDS011;10358;49.590;11.030;2022-08-01T02:18:43;6.43;;;4.22;;
20397;SDS011;10358;49.590;11.030;2022-08-01T02:21:10;5.88;;;4.05;;
20397;SDS011;10358;49.590;11.030;2022-08-01T02:23:39;4.72;;;4.03;;
20397;SDS011;10358;49.590;11.030;2022-08-01T02:26:10;6.60;;;3.92;;
20397;SDS011;10358;49.590;11.030;2022-08-01T02:28:42;6.32;;;3.63;;
20397;SDS011;10358;49.590;11.030;2022-08-01T02:31:13;4.70;;;3.95;;
20397;SDS011;10358;49.590;11.030;2022-08-01T02:33:42;5.38;;;4.13;;
20397;SDS011;10358;49.590;11.030;2022-08-01T02:36:10;5.10;;;4.03;;
20397;SDS011;10358;49.590;11.030;2022-08-01T02:38:38;5.95;;;4.20;;
20397;SDS011;10358;49.590;11.030;2022-08-01T02:41:07;7.45;;;3.88;;
20397;SDS011;10358;49.590;11.030;2022-08-01T02:43:38;4.75;;;4.25;;
20397;SDS011;10358;49.590;11.030;2022-08-01T02:46:08;4.55;;;4.00;;
20397;SDS011;10358;49.590;11.030;2022-08-01T02:48:40;5.57;;;4.30;;
20397;SDS011;10358;49.590;11.030;2022-08-01T02:51:07;4.93;;;4.03;;
20397;SDS011;10358;49.590;11.030;2022-08-01T02:53:34;8.00;;;4.50;;
20397;SDS011;10358;49.590;11.030;2022-08-01T02:56:04;5.10;;;4.43;;
20397;SDS011;10358;49.590;11.030;2022-08-01T02:58:30;5.20;;;4.03;;
20397;SDS011;10358;49.590;11.030;2022-08-01T03:00:58;7.68;;;4.20;;
20397;SDS011;10358;49.590;11.030;2022-08-01T03:03:24;5.25;;;4.20;;
20397;SDS011;10358;49.590;11.030;2022-08-01T03:05:51;6.68;;;3.97;;
20397;SDS011;10358;49.590;11.030;2022-08-01T03:08:17;4.90;;;4.18;;
20397;SDS011;10358;49.590;11.030;2022-08-01T03:10:44;6.47;;;4.28;;
20397;SDS011;10358;49.590;11.030;2022-08-01T03:13:11;4.65;;;4.07;;
20397;SDS011;10358;49.590;11.030;2022-08-01T03:15:40;4.63;;;3.95;;
20397;SDS011;10358;49.590;11.030;2022-08-01T03:18:08;5.38;;;3.88;;
20397;SDS011;10358;49.590;11.030;2022-08-01T03:20:35;5.78;;;4.20;;
20397;SDS011;10358;49.590;11.030;2022-08-01T03:23:02;7.47;;;4.10;;
20397;SDS011;10358;49.590;11.030;2022-08-01T03:25:30;4.75;;;3.90;;
20397;SDS011;10358;49.590;11.030;2022-08-01T03:27:58;5.45;;;4.47;;
20397;SDS011;10358;49.590;11.030;2022-08-01T03:30:26;4.47;;;4.07;;
20397;SDS011;10358;49.590;11.030;2022-08-01T03:32:54;5.07;;;4.57;;
20397;SDS011;10358;49.590;11.030;2022-08-01T03:35:20;4.82;;;4.35;;
20397;SDS011;10358;49.590;11.030;2022-08-01T03:37:53;6.05;;;4.07;;
20397;SDS011;10358;49.590;11.030;2022-08-01T03:40:22;6.03;;;4.28;;
20397;SDS011;10358;49.590;11.030;2022-08-01T03:42:52;6.15;;;4.32;;
20397;SDS011;10358;49.590;11.030;2022-08-01T03:45:23;7.90;;;4.80;;
20397;SDS011;10358;49.590;11.030;2022-08-01T03:47:53;8.60;;;5.03;;
20397;SDS011;10358;49.590;11.030;2022-08-01T03:50:25;7.25;;;4.80;;
20397;SDS011;10358;49.590;11.030;2022-08-01T03:52:53;8.45;;;4.70;;
20397;SDS011;10358;49.590;11.030;2022-08-01T03:55:22;5.03;;;4.50;;
20397;SDS011;10358;49.590;11.030;2022-08-01T03:57:49;8.32;;;4.50;;
20397;SDS011;10358;49.590;11.030;2022-08-01T04:00:16;6.10;;;4.82;;
20397;SDS011;10358;49.590;11.030;2022-08-01T04:02:43;7.10;;;4.85;;
20397;SDS011;10358;49.590;11.030;2022-08-01T04:05:14;6.90;;;4.85;;
20397;SDS011;10358;49.590;11.030;2022-08-01T04:07:41;7.32;;;4.60;;
20397;SDS011;10358;49.590;11.030;2022-08-01T04:10:11;7.38;;;4.45;;
20397;SDS011;10358;49.590;11.030;2022-08-01T04:12:37;6.97;;;4.70;;
20397;SDS011;10358;49.590;11.030;2022-08-01T04:15:03;4.85;;;4.30;;
20397;SDS011;10358;49.590;11.030;2022-08-01T04:17:30;6.90;;;4.30;;
20397;SDS011;10358;49.590;11.030;2022-08-01T04:19:55;5.38;;;4.35;;
20397;SDS011;10358;49.590;11.030;2022-08-01T04:22:21;5.20;;;4.07;;
20397;SDS011;10358;49.590;11.030;2022-08-01T04:24:47;7.35;;;4.28;;
20397;SDS011;10358;49.590;11.030;2022-08-01T04:27:17;5.93;;;4.20;;
20397;SDS011;10358;49.590;11.030;2022-08-01T04:29:47;6.28;;;4.40;;
20397;SDS011;10358;49.590;11.030;2022-08-01T04:32:15;6.05;;;5.28;;
20397;SDS011;10358;49.590;11.030;2022-08-01T04:34:43;7.70;;;4.60;;
20397;SDS011;10358;49.590;11.030;2022-08-01T04:37:11;5.93;;;4.20;;
20397;SDS011;10358;49.590;11.030;2022-08-01T04:39:41;5.32;;;4.30;;
20397;SDS011;10358;49.590;11.030;2022-08-01T04:42:08;5.03;;;4.45;;
20397;SDS011;10358;49.590;11.030;2022-08-01T04:44:35;9.15;;;4.80;;
20397;SDS011;10358;49.590;11.030;2022-08-01T04:47:02;4.88;;;4.38;;
20397;SDS011;10358;49.590;11.030;2022-08-01T04:49:32;5.13;;;4.40;;
20397;SDS011;10358;49.590;11.030;2022-08-01T04:51:58;9.18;;;4.60;;
20397;SDS011;10358;49.590;11.030;2022-08-01T04:54:27;6.72;;;4.43;;
20397;SDS011;10358;49.590;11.030;2022-08-01T04:56:55;6.68;;;4.40;;
20397;SDS011;10358;49.590;11.030;2022-08-01T04:59:24;8.73;;;5.10;;
20397;SDS011;10358;49.590;11.030;2022-08-01T05:02:16;5.40;;;4.38;;
20397;SDS011;10358;49.590;11.030;2022-08-01T05:04:43;8.52;;;5.47;;
20397;SDS011;10358;49.590;11.030;2022-08-01T05:07:09;6.38;;;4.57;;
20397;SDS011;10358;49.590;11.030;2022-08-01T05:09:36;7.40;;;4.28;;
20397;SDS011;10358;49.590;11.030;2022-08-01T05:12:03;7.28;;;4.45;;
20397;SDS011;10358;49.590;11.030;2022-08-01T05:14:30;6.82;;;4.50;;
20397;SDS011;10358;49.590;11.030;2022-08-01T05:16:57;5.68;;;4.45;;
20397;SDS011;10358;49.590;11.030;2022-08-01T05:19:24;6.50;;;4.18;;
20397;SDS011;10358;49.590;11.030;2022-08-01T05:21:50;6.47;;;4.32;;
20397;SDS011;10358;49.590;11.030;2022-08-01T05:24:15;7.72;;;3.90;;
20397;SDS011;10358;49.590;11.030;2022-08-01T05:26:41;4.40;;;4.00;;
20397;SDS011;10358;49.590;11.030;2022-08-01T05:29:07;8.35;;;4.20;;
20397;SDS011;10358;49.590;11.030;2022-08-01T05:31:33;4.78;;;4.00;;
20397;SDS011;10358;49.590;11.030;2022-08-01T05:33:59;4.90;;;4.22;;
20397;SDS011;10358;49.590;11.030;2022-08-01T05:36:26;5.35;;;3.78;;
20397;SDS011;10358;49.590;11.030;2022-08-01T05:38:52;5.43;;;4.10;;
20397;SDS011;10358;49.590;11.030;2022-08-01T05:41:17;6.88;;;4.20;;
20397;SDS011;10358;49.590;11.030;2022-08-01T05:43:43;4.90;;;3.90;;
20397;SDS011;10358;49.590;11.030;2022-08-01T05:46:09;6.75;;;3.83;;
20397;SDS011;10358;49.590;11.030;2022-08-01T05:48:34;4.45;;;3.72;;
20397;SDS011;10358;49.590;11.030;2022-08-01T05:51:00;9.65;;;3.85;;
20397;SDS011;10358;49.590;11.030;2022-08-01T05:53:26;6.72;;;3.95;;
20397;SDS011;10358;49.590;11.030;2022-08-01T05:55:51;6.63;;;3.78;;
20397;SDS011;10358;49.590;11.030;2022-08-01T05:58:17;5.47;;;3.80;;
20397;SDS011;10358;49.590;11.030;2022-08-01T06:00:46;6.53;;;4.00;;
20397;SDS011;10358;49.590;11.030;2022-08-01T06:03:14;7.45;;;3.70;;
20397;SDS011;10358;49.590;11.030;2022-08-01T06:05:40;5.18;;;3.72;;
20397;SDS011;10358;49.590;11.030;2022-08-01T06:08:06;5.65;;;3.45;;
20397;SDS011;10358;49.590;11.030;2022-08-01T06:10:31;4.20;;;3.17;;
20397;SDS011;10358;49.590;11.030;2022-08-01T06:12:57;4.85;;;3.53;;
20397;SDS011;10358;49.590;11.030;2022-08-01T06:15:23;5.43;;;3.30;;
20397;SDS011;10358;49.590;11.030;2022-08-01T06:17:49;5.20;;;3.20;;
20397;SDS011;10358;49.590;11.030;2022-08-01T06:20:14;5.53;;;2.92;;
20397;SDS011;10358;49.590;11.030;2022-08-01T06:22:40;7.35;;;3.25;;
20397;SDS011;10358;49.590;11.030;2022-08-01T06:25:06;6.05;;;2.90;;
20397;SDS011;10358;49.590;11.030;2022-08-01T06:27:53;6.82;;;2.90;;
20397;SDS011;10358;49.590;11.030;2022-08-01T06:30:19;9.93;;;3.33;;
20397;SDS011;10358;49.590;11.030;2022-08-01T06:32:47;3.45;;;2.58;;
20397;SDS011;10358;49.590;11.030;2022-08-01T06:35:14;4.68;;;2.65;;
20397;SDS011;10358;49.590;11.030;2022-08-01T06:37:40;3.63;;;2.10;;
20397;SDS011;10358;49.590;11.030;2022-08-01T06:40:12;4.88;;;2.25;;
20397;SDS011;10358;49.590;11.030;2022-08-01T06:42:38;2.60;;;2.10;;
20397;SDS011;10358;49.590;11.030;2022-08-01T06:45:04;6.97;;;2.55;;
20397;SDS011;10358;49.590;11.030;2022-08-01T06:47:31;7.25;;;2.03;;
20397;SDS011;10358;49.590;11.030;2022-08-01T06:49:57;4.38;;;2.33;;
20397;SDS011;10358;49.590;11.030;2022-08-01T06:52:22;2.55;;;2.10;;
20397;SDS011;10358;49.590;11.030;2022-08-01T06:54:48;3.35;;;2.05;;
20397;SDS011;10358;49.590;11.030;2022-08-01T06:57:14;7.72;;;2.03;;
20397;SDS011;10358;49.590;11.030;2022-08-01T06:59:40;4.13;;;2.13;;
20397;SDS011;10358;49.590;11.030;2022-08-01T07:02:05;4.95;;;2.08;;
20397;SDS011;10358;49.590;11.030;2022-08-01T07:04:32;7.18;;;2.22;;
20397;SDS011;10358;49.590;11.030;2022-08-01T07:06:58;2.85;;;2.05;;
20397;SDS011;10358;49.590;11.030;2022-08-01T07:09:23;5.55;;;2.58;;
20397;SDS011;10358;49.590;11.030;2022-08-01T07:11:49;5.63;;;2.25;;
20397;SDS011;10358;49.590;11.030;2022-08-01T07:14:17;2.55;;;1.88;;
20397;SDS011;10358;49.590;11.030;2022-08-01T07:16:43;3.38;;;1.90;;
20397;SDS011;10358;49.590;11.030;2022-08-01T07:19:09;6.15;;;1.92;;
20397;SDS011;10358;49.590;11.030;2022-08-01T07:21:34;4.57;;;2.13;;
20397;SDS011;10358;49.590;11.030;2022-08-01T07:24:00;5.50;;;2.10;;
20397;SDS011;10358;49.590;11.030;2022-08-01T07:26:26;3.78;;;1.98;;
20397;SDS011;10358;49.590;11.030;2022-08-01T07:28:52;5.15;;;2.10;;
20397;SDS011;10358;49.590;11.030;2022-08-01T07:31:18;4.35;;;2.15;;
20397;SDS011;10358;49.590;11.030;2022-08-01T07:33:44;3.63;;;2.15;;
20397;SDS011;10358;49.590;11.030;2022-08-01T07:36:09;4.43;;;2.00;;
20397;SDS011;10358;49.590;11.030;2022-08-01T07:38:35;10.63;;;2.40;;
20397;SDS011;10358;49.590;11.030;2022-08-01T07:41:00;3.28;;;1.90;;
20397;SDS011;10358;49.590;11.030;2022-08-01T07:43:27;4.97;;;1.98;;
20397;SDS011;10358;49.590;11.030;2022-08-01T07:45:53;3.67;;;2.05;;
20397;SDS011;10358;49.590;11.030;2022-08-01T07:48:18;3.88;;;1.90;;
20397;SDS011;10358;49.590;11.030;2022-08-01T07:50:45;5.07;;;2.05;;
20397;SDS011;10358;49.590;11.030;2022-08-01T07:53:11;8.13;;;2.15;;
20397;SDS011;10358;49.590;11.030;2022-08-01T07:55:36;5.40;;;2.00;;
20397;SDS011;10358;49.590;11.030;2022-08-01T07:58:02;3.17;;;2.15;;
20397;SDS011;10358;49.590;11.030;2022-08-01T08:00:28;3.28;;;2.13;;
20397;SDS011;10358;49.590;11.030;2022-08-01T08:02:53;2.60;;;2.08;;
20397;SDS011;10358;49.590;11.030;2022-08-01T08:05:19;4.93;;;1.80;;
20397;SDS011;10358;49.590;11.030;2022-08-01T08:07:45;3.50;;;1.88;;
20397;SDS011;10358;49.590;11.030;2022-08-01T08:10:10;4.80;;;2.13;;
20397;SDS011;10358;49.590;11.030;2022-08-01T08:12:36;2.97;;;1.88;;
20397;SDS011;10358;49.590;11.030;2022-08-01T08:15:02;3.58;;;1.90;;
20397;SDS011;10358;49.590;11.030;2022-08-01T08:17:30;3.20;;;2.35;;
20397;SDS011;10358;49.590;11.030;2022-08-01T08:19:57;3.38;;;1.90;;
20397;SDS011;10358;49.590;11.030;2022-08-01T08:22:22;4.18;;;2.00;;
20397;SDS011;10358;49.590;11.030;2022-08-01T08:24:48;3.55;;;1.80;;
20397;SDS011;10358;49.590;11.030;2022-08-01T08:27:14;2.72;;;1.83;;
20397;SDS011;10358;49.590;11.030;2022-08-01T08:29:40;2.25;;;1.80;;
20397;SDS011;10358;49.590;11.030;2022-08-01T08:32:06;2.00;;;1.70;;
20397;SDS011;10358;49.590;11.030;2022-08-01T08:34:32;3.83;;;1.73;;
20397;SDS011;10358;49.590;11.030;2022-08-01T08:36:59;2.35;;;1.80;;
20397;SDS011;10358;49.590;11.030;2022-08-01T08:39:24;6.03;;;2.30;;
20397;SDS011;10358;49.590;11.030;2022-08-01T08:41:50;4.90;;;2.13;;
20397;SDS011;10358;49.590;11.030;2022-08-01T08:44:16;2.58;;;1.70;;
20397;SDS011;10358;49.590;11.030;2022-08-01T08:46:46;3.47;;;1.98;;
20397;SDS011;10358;49.590;11.030;2022-08-01T08:49:18;2.30;;;1.80;;
20397;SDS011;10358;49.590;11.030;2022-08-01T08:51:47;6.68;;;1.90;;
20397;SDS011;10358;49.590;11.030;2022-08-01T08:54:15;2.97;;;1.85;;
20397;SDS011;10358;49.590;11.030;2022-08-01T08:56:43;2.75;;;1.92;;
20397;SDS011;10358;49.590;11.030;2022-08-01T08:59:11;4.75;;;1.85;;
20397;SDS011;10358;49.590;11.030;2022-08-01T09:01:38;1.77;;;1.20;;
20397;SDS011;10358;49.590;11.030;2022-08-01T09:04:04;2.17;;;1.30;;
20397;SDS011;10358;49.590;11.030;2022-08-01T09:06:31;2.13;;;1.48;;
20397;SDS011;10358;49.590;11.030;2022-08-01T09:08:57;2.70;;;1.20;;
20397;SDS011;10358;49.590;11.030;2022-08-01T09:11:23;2.38;;;1.42;;
20397;SDS011;10358;49.590;11.030;2022-08-01T09:14:02;3.35;;;1.10;;
20397;SDS011;10358;49.590;11.030;2022-08-01T09:16:30;3.25;;;1.30;;
20397;SDS011;10358;49.590;11.030;2022-08-01T09:19:10;4.55;;;1.50;;
20397;SDS011;10358;49.590;11.030;2022-08-01T09:21:36;1.48;;;1.20;;
20397;SDS011;10358;49.590;11.030;2022-08-01T09:24:02;4.03;;;1.30;;
20397;SDS011;10358;49.590;11.030;2022-08-01T09:28:58;2.67;;;1.25;;
20397;SDS011;10358;49.590;11.030;2022-08-01T09:31:27;2.40;;;1.50;;
20397;SDS011;10358;49.590;11.030;2022-08-01T09:33:57;1.83;;;1.20;;
20397;SDS011;10358;49.590;11.030;2022-08-01T09:36:25;3.15;;;1.40;;
20397;SDS011;10358;49.590;11.030;2022-08-01T09:38:52;2.20;;;1.30;;
20397;SDS011;10358;49.590;11.030;2022-08-01T09:41:29;5.70;;;1.50;;
20397;SDS011;10358;49.590;11.030;2022-08-01T09:43:56;1.67;;;1.13;;
20397;SDS011;10358;49.590;11.030;2022-08-01T09:46:22;2.08;;;1.27;;
20397;SDS011;10358;49.590;11.030;2022-08-01T09:49:26;2.35;;;1.40;;
20397;SDS011;10358;49.590;11.030;2022-08-01T09:51:51;1.23;;;1.10;;
20397;SDS011;10358;49.590;11.030;2022-08-01T09:54:17;2.65;;;1.35;;
20397;SDS011;10358;49.590;11.030;2022-08-01T09:56:54;2.67;;;1.30;;
20397;SDS011;10358;49.590;11.030;2022-08-01T09:59:35;1.92;;;1.40;;
20397;SDS011;10358;49.590;11.030;2022-08-01T10:02:03;3.17;;;1.13;;
20397;SDS011;10358;49.590;11.030;2022-08-01T10:04:28;2.63;;;1.30;;
20397;SDS011;10358;49.590;11.030;2022-08-01T10:07:02;2.85;;;1.20;;
20397;SDS011;10358;49.590;11.030;2022-08-01T10:09:32;4.60;;;1.40;;
20397;SDS011;10358;49.590;11.030;2022-08-01T10:11:59;6.60;;;1.50;;
20397;SDS011;10358;49.590;11.030;2022-08-01T10:14:26;1.83;;;1.35;;
20397;SDS011;10358;49.590;11.030;2022-08-01T10:16:56;2.30;;;1.40;;
20397;SDS011;10358;49.590;11.030;2022-08-01T10:19:23;1.58;;;1.20;;
20397;SDS011;10358;49.590;11.030;2022-08-01T10:21:51;2.30;;;1.30;;
20397;SDS011;10358;49.590;11.030;2022-08-01T10:24:22;1.88;;;1.23;;
20397;SDS011;10358;49.590;11.030;2022-08-01T10:26:55;3.55;;;1.20;;
20397;SDS011;10358;49.590;11.030;2022-08-01T10:29:29;2.50;;;1.20;;
20397;SDS011;10358;49.590;11.030;2022-08-01T10:32:02;1.80;;;1.20;;
20397;SDS011;10358;49.590;11.030;2022-08-01T10:34:30;1.38;;;1.10;;
20397;SDS011;10358;49.590;11.030;2022-08-01T10:36:58;2.58;;;1.20;;
20397;SDS011;10358;49.590;11.030;2022-08-01T10:39:25;1.40;;;1.30;;
20397;SDS011;10358;49.590;11.030;2022-08-01T10:41:53;1.80;;;1.13;;
20397;SDS011;10358;49.590;11.030;2022-08-01T10:44:19;2.33;;;1.20;;
20397;SDS011;10358;49.590;11.030;2022-08-01T10:46:46;2.67;;;1.50;;
20397;SDS011;10358;49.590;11.030;2022-08-01T10:49:17;2.78;;;1.35;;
20397;SDS011;10358;49.590;11.030;2022-08-01T10:51:45;1.30;;;1.10;;
20397;SDS011;10358;49.590;11.030;2022-08-01T10:54:12;1.92;;;1.40;;
20397;SDS011;10358;49.590;11.030;2022-08-01T10:56:45;2.40;;;1.50;;
20397;SDS011;10358;49.590;11.030;2022-08-01T10:59:27;3.78;;;1.42;;
20397;SDS011;10358;49.590;11.030;2022-08-01T11:01:57;3.50;;;1.23;;
20397;SDS011;10358;49.590;11.030;2022-08-01T11:04:37;3.78;;;1.40;;
20397;SDS011;10358;49.590;11.030;2022-08-01T11:07:21;2.90;;;1.60;;
20397;SDS011;10358;49.590;11.030;2022-08-01T11:09:58;1.58;;;1.45;;
20397;SDS011;10358;49.590;11.030;2022-08-01T11:12:46;7.22;;;4.68;;
20397;SDS011;10358;49.590;11.030;2022-08-01T11:20:15;2.88;;;1.90;;
20397;SDS011;10358;49.590;11.030;2022-08-01T11:25:24;1.80;;;1.38;;
20397;SDS011;10358;49.590;11.030;2022-08-01T11:30:43;2.40;;;1.40;;
20397;SDS011;10358;49.590;11.030;2022-08-01T11:33:14;2.85;;;1.30;;
20397;SDS011;10358;49.590;11.030;2022-08-01T11:38:36;1.50;;;1.40;;
20397;SDS011;10358;49.590;11.030;2022-08-01T11:41:10;3.78;;;1.23;;
20397;SDS011;10358;49.590;11.030;2022-08-01T11:43:53;6.13;;;1.20;;
20397;SDS011;10358;49.590;11.030;2022-08-01T11:54:28;1.90;;;1.30;;
20397;SDS011;10358;49.590;11.030;2022-08-01T11:56:56;3.17;;;1.73;;
20397;SDS011;10358;49.590;11.030;2022-08-01T11:59:25;4.38;;;1.60;;
20397;SDS011;10358;49.590;11.030;2022-08-01T12:01:52;5.55;;;2.00;;
20397;SDS011;10358;49.590;11.030;2022-08-01T12:04:17;2.00;;;1.60;;
20397;SDS011;10358;49.590;11.030;2022-08-01T12:06:43;4.18;;;1.80;;
20397;SDS011;10358;49.590;11.030;2022-08-01T12:09:19;3.20;;;2.20;;
20397;SDS011;10358;49.590;11.030;2022-08-01T12:11:46;4.10;;;1.67;;
20397;SDS011;10358;49.590;11.030;2022-08-01T12:14:16;2.75;;;1.95;;
20397;SDS011;10358;49.590;11.030;2022-08-01T12:16:52;3.65;;;2.00;;
20397;SDS011;10358;49.590;11.030;2022-08-01T12:19:19;5.15;;;1.90;;
20397;SDS011;10358;49.590;11.030;2022-08-01T12:22:04;4.15;;;1.90;;
20397;SDS011;10358;49.590;11.030;2022-08-01T12:24:34;2.00;;;1.80;;
20397;SDS011;10358;49.590;11.030;2022-08-01T12:27:00;5.80;;;1.90;;
20397;SDS011;10358;49.590;11.030;2022-08-01T12:29:39;5.60;;;1.90;;
20397;SDS011;10358;49.590;11.030;2022-08-01T12:32:22;2.30;;;1.67;;
20397;SDS011;10358;49.590;11.030;2022-08-01T12:34:49;5.00;;;1.88;;
20397;SDS011;10358;49.590;11.030;2022-08-01T12:37:16;2.35;;;1.70;;
20397;SDS011;10358;49.590;11.030;2022-08-01T12:39:42;3.78;;;1.85;;
20397;SDS011;10358;49.590;11.030;2022-08-01T12:42:09;5.10;;;1.85;;
20397;SDS011;10358;49.590;11.030;2022-08-01T12:44:35;3.00;;;1.80;;
20397;SDS011;10358;49.590;11.030;2022-08-01T12:47:02;4.03;;;1.77;;
20397;SDS011;10358;49.590;11.030;2022-08-01T12:49:31;2.67;;;1.80;;
20397;SDS011;10358;49.590;11.030;2022-08-01T12:51:57;3.08;;;1.63;;
20397;SDS011;10358;49.590;11.030;2022-08-01T12:54:23;4.88;;;1.85;;
20397;SDS011;10358;49.590;11.030;2022-08-01T12:56:50;7.20;;;1.63;;
20397;SDS011;10358;49.590;11.030;2022-08-01T12:59:27;2.97;;;1.50;;
20397;SDS011;10358;49.590;11.030;2022-08-01T13:01:56;2.70;;;1.60;;
20397;SDS011;10358;49.590;11.030;2022-08-01T13:04:22;1.70;;;1.60;;
20397;SDS011;10358;49.590;11.030;2022-08-01T13:06:48;2.95;;;1.60;;
20397;SDS011;10358;49.590;11.030;2022-08-01T13:09:17;1.92;;;1.52;;
20397;SDS011;10358;49.590;11.030;2022-08-01T13:11:43;1.73;;;1.50;;
20397;SDS011;10358;49.590;11.030;2022-08-01T13:14:11;2.85;;;1.60;;
20397;SDS011;10358;49.590;11.030;2022-08-01T13:16:52;6.70;;;1.50;;
20397;SDS011;10358;49.590;11.030;2022-08-01T13:19:18;1.52;;;1.40;;
20397;SDS011;10358;49.590;11.030;2022-08-01T13:21:53;2.95;;;1.40;;
20397;SDS011;10358;49.590;11.030;2022-08-01T13:24:27;2.97;;;1.60;;
20397;SDS011;10358;49.590;11.030;2022-08-01T13:29:33;3.60;;;1.50;;
20397;SDS011;10358;49.590;11.030;2022-08-01T13:32:15;2.10;;;1.50;;
20397;SDS011;10358;49.590;11.030;2022-08-01T13:34:42;4.90;;;1.40;;
20397;SDS011;10358;49.590;11.030;2022-08-01T13:37:08;4.18;;;1.20;;
20397;SDS011;10358;49.590;11.030;2022-08-01T13:39:34;1.70;;;1.27;;
20397;SDS011;10358;49.590;11.030;2022-08-01T13:42:06;4.18;;;1.30;;
20397;SDS011;10358;49.590;11.030;2022-08-01T13:44:32;2.92;;;1.40;;
20397;SDS011;10358;49.590;11.030;2022-08-01T13:46:58;3.67;;;1.38;;
20397;SDS011;10358;49.590;11.030;2022-08-01T13:49:23;2.33;;;1.30;;
20397;SDS011;10358;49.590;11.030;2022-08-01T13:51:49;3.20;;;1.20;;
20397;SDS011;10358;49.590;11.030;2022-08-01T13:54:15;1.70;;;1.30;;
20397;SDS011;10358;49.590;11.030;2022-08-01T13:56:41;4.65;;;1.30;;
20397;SDS011;10358;49.590;11.030;2022-08-01T13:59:07;1.95;;;1.30;;
20397;SDS011;10358;49.590;11.030;2022-08-01T14:01:32;3.53;;;1.17;;
20397;SDS011;10358;49.590;11.030;2022-08-01T14:03:58;1.65;;;1.30;;
20397;SDS011;10358;49.590;11.030;2022-08-01T14:06:24;2.25;;;1.05;;
20397;SDS011;10358;49.590;11.030;2022-08-01T14:08:50;1.88;;;1.17;;
20397;SDS011;10358;49.590;11.030;2022-08-01T14:11:16;3.20;;;1.27;;
20397;SDS011;10358;49.590;11.030;2022-08-01T14:13:41;2.63;;;1.38;;
20397;SDS011;10358;49.590;11.030;2022-08-01T14:16:08;1.85;;;1.50;;
20397;SDS011;10358;49.590;11.030;2022-08-01T14:18:33;1.30;;;1.10;;
20397;SDS011;10358;49.590;11.030;2022-08-01T14:20:59;1.58;;;1.10;;
20397;SDS011;10358;49.590;11.030;2022-08-01T14:23:25;1.05;;;0.95;;
20397;SDS011;10358;49.590;11.030;2022-08-01T14:25:51;1.25;;;1.00;;
20397;SDS011;10358;49.590;11.030;2022-08-01T14:28:17;2.22;;;1.20;;
20397;SDS011;10358;49.590;11.030;2022-08-01T14:30:43;1.67;;;1.10;;
20397;SDS011;10358;49.590;11.030;2022-08-01T14:33:09;1.60;;;1.30;;
20397;SDS011;10358;49.590;11.030;2022-08-01T14:35:35;1.83;;;1.10;;
20397;SDS011;10358;49.590;11.030;2022-08-01T14:38:01;1.20;;;1.00;;
20397;SDS011;10358;49.590;11.030;2022-08-01T14:40:27;2.42;;;1.00;;
20397;SDS011;10358;49.590;11.030;2022-08-01T14:42:52;3.25;;;1.15;;
20397;SDS011;10358;49.590;11.030;2022-08-01T14:45:18;1.45;;;1.00;;
20397;SDS011;10358;49.590;11.030;2022-08-01T14:47:44;2.22;;;1.50;;
20397;SDS011;10358;49.590;11.030;2022-08-01T14:50:11;3.03;;;1.70;;
20397;SDS011;10358;49.590;11.030;2022-08-01T14:52:38;1.70;;;1.60;;
20397;SDS011;10358;49.590;11.030;2022-08-01T14:55:06;3.63;;;1.60;;
20397;SDS011;10358;49.590;11.030;2022-08-01T14:57:33;2.13;;;1.85;;
20397;SDS011;10358;49.590;11.030;2022-08-01T15:00:00;3.38;;;1.45;;
20397;SDS011;10358;49.590;11.030;2022-08-01T15:02:25;2.22;;;1.50;;
20397;SDS011;10358;49.590;11.030;2022-08-01T15:04:51;4.93;;;1.60;;
20397;SDS011;10358;49.590;11.030;2022-08-01T15:07:17;1.92;;;1.50;;
20397;SDS011;10358;49.590;11.030;2022-08-01T15:09:44;1.90;;;1.50;;
20397;SDS011;10358;49.590;11.030;2022-08-01T15:12:10;4.05;;;1.50;;
20397;SDS011;10358;49.590;11.030;2022-08-01T15:14:36;2.33;;;1.50;;
20397;SDS011;10358;49.590;11.030;2022-08-01T15:17:16;2.40;;;1.50;;